sensor_id;sensor_type;location;lat;lon;timestamp;pressure;altitude;pressure_sealevel;temperature;humidity
19447;BME280;9862;49.462;11.054;2023-03-12T00:02:05;97728.47;;;4.76;100.00
19447;BME280;9862;49.462;11.054;2023-03-12T00:04:33;97730.09;;;4.77;100.00
19447;BME280;9862;49.462;11.054;2023-03-12T00:07:00;97736.38;;;4.76;100.00
19447;BME280;9862;49.462;11.054;2023-03-12T00:09:27;97734.06;;;4.73;100.00
19447;BME280;9862;49.462;11.054;2023-03-12T00:11:54;97739.69;;;4.70;100.00
19447;BME280;9862;49.462;11.054;2023-03-12T00:14:20;97737.44;;;4.67;100.00
19447;BME280;9862;49.462;11.054;2023-03-12T00:16:47;97736.88;;;4.56;100.00
19447;BME280;9862;49.462;11.054;2023-03-12T00:19:13;97741.84;;;4.51;100.00
19447;BME280;9862;49.462;11.054;2023-03-12T00:21:41;97741.50;;;4.54;100.00
19447;BME280;9862;49.462;11.054;2023-03-12T00:24:07;97739.19;;;4.51;100.00
19447;BME280;9862;49.462;11.054;2023-03-12T00:26:34;97740.84;;;4.52;100.00
19447;BME280;9862;49.462;11.054;2023-03-12T00:29:01;97742.47;;;4.53;100.00
19447;BME280;9862;49.462;11.054;2023-03-12T00:31:29;97743.94;;;4.56;100.00
19447;BME280;9862;49.462;11.054;2023-03-12T00:33:57;97749.22;;;4.56;100.00
19447;BME280;9862;49.462;11.054;2023-03-12T00:36:25;97749.03;;;4.57;100.00
19447;BME280;9862;49.462;11.054;2023-03-12T00:38:54;97750.50;;;4.60;100.00
19447;BME280;9862;49.462;11.054;2023-03-12T00:41:21;97749.31;;;4.63;100.00
19447;BME280;9862;49.462;11.054;2023-03-12T00:43:49;97749.16;;;4.64;100.00
19447;BME280;9862;49.462;11.054;2023-03-12T00:46:16;97750.78;;;4.65;100.00
19447;BME280;9862;49.462;11.054;2023-03-12T00:48:43;97753.44;;;4.65;100.00
19447;BME280;9862;49.462;11.054;2023-03-12T00:51:10;97743.69;;;4.66;100.00
19447;BME280;9862;49.462;11.054;2023-03-12T00:53:37;97751.44;;;4.67;100.00
19447;BME280;9862;49.462;11.054;2023-03-12T00:56:06;97728.72;;;4.66;100.00
19447;BME280;9862;49.462;11.054;2023-03-12T00:58:33;97734.78;;;4.67;100.00
19447;BME280;9862;49.462;11.054;2023-03-12T01:00:59;97732.16;;;4.67;100.00
19447;BME280;9862;49.462;11.054;2023-03-12T01:03:26;97731.53;;;4.65;100.00
19447;BME280;9862;49.462;11.054;2023-03-12T01:05:53;97727.06;;;4.65;100.00
19447;BME280;9862;49.462;11.054;2023-03-12T01:08:19;97726.06;;;4.66;100.00
19447;BME280;9862;49.462;11.054;2023-03-12T01:10:46;97736.78;;;4.65;100.00
19447;BME280;9862;49.462;11.054;2023-03-12T01:13:14;97731.53;;;4.65;100.00
19447;BME280;9862;49.462;11.054;2023-03-12T01:15:41;97729.53;;;4.67;100.00
19447;BME280;9862;49.462;11.054;2023-03-12T01:18:07;97738.06;;;4.69;100.00
19447;BME280;9862;49.462;11.054;2023-03-12T01:20:34;97730.78;;;4.71;100.00
19447;BME280;9862;49.462;11.054;2023-03-12T01:23:00;97729.78;;;4.72;100.00
19447;BME280;9862;49.462;11.054;2023-03-12T01:25:27;97734.06;;;4.73;100.00
19447;BME280;9862;49.462;11.054;2023-03-12T01:27:53;97731.44;;;4.73;100.00
19447;BME280;9862;49.462;11.054;2023-03-12T01:30:21;97736.06;;;4.71;100.00
19447;BME280;9862;49.462;11.054;2023-03-12T01:32:48;97732.44;;;4.72;100.00
19447;BME280;9862;49.462;11.054;2023-03-12T01:35:15;97732.44;;;4.72;100.00
19447;BME280;9862;49.462;11.054;2023-03-12T01:37:41;97732.63;;;4.70;100.00
19447;BME280;9862;49.462;11.054;2023-03-12T01:40:13;97731.78;;;4.70;100.00
19447;BME280;9862;49.462;11.054;2023-03-12T01:42:40;97740.53;;;4.70;100.00
19447;BME280;9862;49.462;11.054;2023-03-12T01:48:09;97733.63;;;4.69;100.00
19447;BME280;9862;49.462;11.054;2023-03-12T01:50:35;97718.16;;;4.66;100.00
19447;BME280;9862;49.462;11.054;2023-03-12T01:53:02;97724.63;;;4.64;100.00
19447;BME280;9862;49.462;11.054;2023-03-12T01:55:29;97728.59;;;4.59;100.00
19447;BME280;9862;49.462;11.054;2023-03-12T01:57:56;97727.31;;;4.55;100.00
19447;BME280;9862;49.462;11.054;2023-03-12T02:00:25;97718.75;;;4.53;100.00
19447;BME280;9862;49.462;11.054;2023-03-12T02:02:54;97722.06;;;4.55;100.00
19447;BME280;9862;49.462;11.054;2023-03-12T02:05:28;97726.50;;;4.55;100.00
19447;BME280;9862;49.462;11.054;2023-03-12T02:07:57;97711.50;;;4.55;100.00
19447;BME280;9862;49.462;11.054;2023-03-12T02:10:24;97718.59;;;4.55;100.00
19447;BME280;9862;49.462;11.054;2023-03-12T02:12:51;97716.97;;;4.54;100.00
19447;BME280;9862;49.462;11.054;2023-03-12T02:15:18;97720.56;;;4.53;100.00
19447;BME280;9862;49.462;11.054;2023-03-12T02:17:45;97725.31;;;4.57;100.00
19447;BME280;9862;49.462;11.054;2023-03-12T02:20:15;97723.31;;;4.59;100.00
19447;BME280;9862;49.462;11.054;2023-03-12T02:22:48;97718.41;;;4.56;100.00
19447;BME280;9862;49.462;11.054;2023-03-12T02:25:30;97720.25;;;4.56;100.00
19447;BME280;9862;49.462;11.054;2023-03-12T02:28:02;97722.69;;;4.57;100.00
19447;BME280;9862;49.462;11.054;2023-03-12T02:30:30;97713.16;;;4.56;100.00
19447;BME280;9862;49.462;11.054;2023-03-12T02:33:01;97714.78;;;4.57;100.00
19447;BME280;9862;49.462;11.054;2023-03-12T02:35:27;97716.06;;;4.62;100.00
19447;BME280;9862;49.462;11.054;2023-03-12T02:37:55;97716.72;;;4.64;100.00
19447;BME280;9862;49.462;11.054;2023-03-12T02:40:25;97713.91;;;4.65;100.00
19447;BME280;9862;49.462;11.054;2023-03-12T02:42:55;97719.34;;;4.64;100.00
19447;BME280;9862;49.462;11.054;2023-03-12T02:45:23;97721.00;;;4.65;100.00
19447;BME280;9862;49.462;11.054;2023-03-12T02:47:51;97724.63;;;4.64;100.00
19447;BME280;9862;49.462;11.054;2023-03-12T02:50:17;97730.84;;;4.63;100.00
19447;BME280;9862;49.462;11.054;2023-03-12T02:52:44;97732.69;;;4.62;100.00
19447;BME280;9862;49.462;11.054;2023-03-12T02:55:11;97737.13;;;4.62;100.00
19447;BME280;9862;49.462;11.054;2023-03-12T02:57:37;97741.13;;;4.57;100.00
19447;BME280;9862;49.462;11.054;2023-03-12T03:00:07;97745.78;;;4.55;100.00
19447;BME280;9862;49.462;11.054;2023-03-12T03:02:36;97746.41;;;4.57;100.00
19447;BME280;9862;49.462;11.054;2023-03-12T03:05:03;97738.78;;;4.63;100.00
19447;BME280;9862;49.462;11.054;2023-03-12T03:07:30;97747.16;;;4.66;100.00
19447;BME280;9862;49.462;11.054;2023-03-12T03:09:57;97738.06;;;4.69;100.00
19447;BME280;9862;49.462;11.054;2023-03-12T03:12:28;97748.59;;;4.69;100.00
19447;BME280;9862;49.462;11.054;2023-03-12T03:14:55;97743.78;;;4.72;100.00
19447;BME280;9862;49.462;11.054;2023-03-12T03:17:23;97747.91;;;4.75;100.00
19447;BME280;9862;49.462;11.054;2023-03-12T03:19:50;97744.09;;;4.77;100.00
19447;BME280;9862;49.462;11.054;2023-03-12T03:22:17;97743.09;;;4.78;100.00
19447;BME280;9862;49.462;11.054;2023-03-12T03:24:44;97750.00;;;4.79;100.00
19447;BME280;9862;49.462;11.054;2023-03-12T03:27:11;97742.63;;;4.75;100.00
19447;BME280;9862;49.462;11.054;2023-03-12T03:29:38;97746.44;;;4.72;100.00
19447;BME280;9862;49.462;11.054;2023-03-12T03:32:05;97745.34;;;4.67;100.00
19447;BME280;9862;49.462;11.054;2023-03-12T03:34:33;97743.22;;;4.62;100.00
19447;BME280;9862;49.462;11.054;2023-03-12T03:37:00;97750.13;;;4.63;100.00
19447;BME280;9862;49.462;11.054;2023-03-12T03:39:27;97746.34;;;4.66;100.00
19447;BME280;9862;49.462;11.054;2023-03-12T03:41:53;97756.59;;;4.60;100.00
19447;BME280;9862;49.462;11.054;2023-03-12T03:44:20;97760.22;;;4.59;100.00
19447;BME280;9862;49.462;11.054;2023-03-12T03:46:48;97750.72;;;4.50;100.00
19447;BME280;9862;49.462;11.054;2023-03-12T03:49:14;97756.19;;;4.49;100.00
19447;BME280;9862;49.462;11.054;2023-03-12T03:51:43;97756.63;;;4.52;100.00
19447;BME280;9862;49.462;11.054;2023-03-12T03:54:09;97760.09;;;4.53;100.00
19447;BME280;9862;49.462;11.054;2023-03-12T03:56:36;97759.28;;;4.52;100.00
19447;BME280;9862;49.462;11.054;2023-03-12T03:59:03;97766.50;;;4.58;100.00
19447;BME280;9862;49.462;11.054;2023-03-12T04:01:29;97764.66;;;4.59;100.00
19447;BME280;9862;49.462;11.054;2023-03-12T04:03:56;97763.50;;;4.62;100.00
19447;BME280;9862;49.462;11.054;2023-03-12T04:06:23;97760.34;;;4.66;100.00
19447;BME280;9862;49.462;11.054;2023-03-12T04:08:51;97757.94;;;4.56;100.00
19447;BME280;9862;49.462;11.054;2023-03-12T04:11:20;97751.72;;;4.49;100.00
19447;BME280;9862;49.462;11.054;2023-03-12T04:13:47;97748.09;;;4.50;100.00
19447;BME280;9862;49.462;11.054;2023-03-12T04:16:14;97739.56;;;4.48;100.00
19447;BME280;9862;49.462;11.054;2023-03-12T04:18:41;97747.06;;;4.37;100.00
19447;BME280;9862;49.462;11.054;2023-03-12T04:21:10;97746.25;;;4.36;100.00
19447;BME280;9862;49.462;11.054;2023-03-12T04:23:37;97739.16;;;4.37;100.00
19447;BME280;9862;49.462;11.054;2023-03-12T04:26:05;97741.31;;;4.33;100.00
19447;BME280;9862;49.462;11.054;2023-03-12T04:28:33;97746.75;;;4.31;100.00
19447;BME280;9862;49.462;11.054;2023-03-12T04:31:01;97742.03;;;4.27;100.00
19447;BME280;9862;49.462;11.054;2023-03-12T04:33:29;97748.88;;;4.36;100.00
19447;BME280;9862;49.462;11.054;2023-03-12T04:35:56;97752.97;;;4.39;100.00
19447;BME280;9862;49.462;11.054;2023-03-12T04:38:24;97744.53;;;4.43;100.00
19447;BME280;9862;49.462;11.054;2023-03-12T04:40:56;97734.09;;;4.50;100.00
19447;BME280;9862;49.462;11.054;2023-03-12T04:43:24;97751.72;;;4.49;100.00
19447;BME280;9862;49.462;11.054;2023-03-12T04:45:51;97745.66;;;4.49;100.00
19447;BME280;9862;49.462;11.054;2023-03-12T04:48:17;97739.19;;;4.51;100.00
19447;BME280;9862;49.462;11.054;2023-03-12T04:50:44;97743.66;;;4.51;100.00
19447;BME280;9862;49.462;11.054;2023-03-12T04:53:10;97737.03;;;4.55;100.00
19447;BME280;9862;49.462;11.054;2023-03-12T04:55:37;97734.94;;;4.50;100.00
19447;BME280;9862;49.462;11.054;2023-03-12T04:58:03;97738.56;;;4.49;100.00
19447;BME280;9862;49.462;11.054;2023-03-12T05:00:31;97741.84;;;4.51;100.00
19447;BME280;9862;49.462;11.054;2023-03-12T05:02:57;97736.56;;;4.51;100.00
19447;BME280;9862;49.462;11.054;2023-03-12T05:05:24;97733.94;;;4.51;100.00
19447;BME280;9862;49.462;11.054;2023-03-12T05:07:50;97733.28;;;4.49;100.00
19447;BME280;9862;49.462;11.054;2023-03-12T05:10:17;97743.19;;;4.47;100.00
19447;BME280;9862;49.462;11.054;2023-03-12T05:12:44;97746.19;;;4.44;100.00
19447;BME280;9862;49.462;11.054;2023-03-12T05:15:10;97742.72;;;4.44;100.00
19447;BME280;9862;49.462;11.054;2023-03-12T05:17:38;97748.16;;;4.42;100.00
19447;BME280;9862;49.462;11.054;2023-03-12T05:20:05;97736.97;;;4.40;100.00
19447;BME280;9862;49.462;11.054;2023-03-12T05:22:32;97740.38;;;4.49;100.00
19447;BME280;9862;49.462;11.054;2023-03-12T05:24:58;97744.78;;;4.56;100.00
19447;BME280;9862;49.462;11.054;2023-03-12T05:27:25;97739.50;;;4.56;100.00
19447;BME280;9862;49.462;11.054;2023-03-12T05:29:52;97735.88;;;4.57;100.00
19447;BME280;9862;49.462;11.054;2023-03-12T05:32:18;97744.03;;;4.63;100.00
19447;BME280;9862;49.462;11.054;2023-03-12T05:34:46;97738.06;;;4.69;100.00
19447;BME280;9862;49.462;11.054;2023-03-12T05:37:12;97740.88;;;4.67;100.00
19447;BME280;9862;49.462;11.054;2023-03-12T05:39:39;97738.63;;;4.64;100.00
19447;BME280;9862;49.462;11.054;2023-03-12T05:42:11;97739.13;;;4.59;100.00
19447;BME280;9862;49.462;11.054;2023-03-12T05:44:37;97733.41;;;4.56;100.00
19447;BME280;9862;49.462;11.054;2023-03-12T05:47:05;97732.59;;;4.55;100.00
19447;BME280;9862;49.462;11.054;2023-03-12T05:49:31;97726.66;;;4.53;100.00
19447;BME280;9862;49.462;11.054;2023-03-12T05:51:59;97735.88;;;4.57;100.00
19447;BME280;9862;49.462;11.054;2023-03-12T05:54:26;97727.78;;;4.59;100.00
19447;BME280;9862;49.462;11.054;2023-03-12T05:56:53;97738.44;;;4.66;100.00
19447;BME280;9862;49.462;11.054;2023-03-12T05:59:20;97739.25;;;4.66;100.00
19447;BME280;9862;49.462;11.054;2023-03-12T06:01:47;97746.34;;;4.66;100.00
19447;BME280;9862;49.462;11.054;2023-03-12T06:04:13;97746.97;;;4.68;100.00
19447;BME280;9862;49.462;11.054;2023-03-12T06:06:40;97747.25;;;4.73;100.00
19447;BME280;9862;49.462;11.054;2023-03-12T06:09:08;97744.59;;;4.73;100.00
19447;BME280;9862;49.462;11.054;2023-03-12T06:11:35;97747.44;;;4.71;100.00
19447;BME280;9862;49.462;11.054;2023-03-12T06:14:01;97741.97;;;4.73;100.00
19447;BME280;9862;49.462;11.054;2023-03-12T06:16:28;97742.91;;;4.80;100.00
19447;BME280;9862;49.462;11.054;2023-03-12T06:18:55;97751.38;;;4.90;100.00
19447;BME280;9862;49.462;11.054;2023-03-12T06:21:24;97745.03;;;4.99;100.00
19447;BME280;9862;49.462;11.054;2023-03-12T06:23:51;97741.19;;;5.02;100.00
19447;BME280;9862;49.462;11.054;2023-03-12T06:26:21;97749.41;;;5.07;100.00
19447;BME280;9862;49.462;11.054;2023-03-12T06:28:49;97742.59;;;5.12;100.00
19447;BME280;9862;49.462;11.054;2023-03-12T06:31:16;97747.50;;;5.15;100.00
19447;BME280;9862;49.462;11.054;2023-03-12T06:33:44;97744.69;;;5.17;100.00
19447;BME280;9862;49.462;11.054;2023-03-12T06:36:11;97752.66;;;5.09;100.00
19447;BME280;9862;49.462;11.054;2023-03-12T06:38:37;97752.66;;;4.94;100.00
19447;BME280;9862;49.462;11.054;2023-03-12T06:41:06;97754.63;;;4.92;100.00
19447;BME280;9862;49.462;11.054;2023-03-12T06:43:36;97751.75;;;4.87;100.00
19447;BME280;9862;49.462;11.054;2023-03-12T06:46:04;97760.28;;;4.89;100.00
19447;BME280;9862;49.462;11.054;2023-03-12T06:48:32;97768.75;;;4.99;100.00
19447;BME280;9862;49.462;11.054;2023-03-12T06:51:01;97763.03;;;5.10;100.00
19447;BME280;9862;49.462;11.054;2023-03-12T06:53:27;97770.69;;;5.05;100.00
19447;BME280;9862;49.462;11.054;2023-03-12T06:55:54;97772.69;;;5.03;100.00
19447;BME280;9862;49.462;11.054;2023-03-12T06:58:21;97777.66;;;4.98;100.00
19447;BME280;9862;49.462;11.054;2023-03-12T07:00:48;97777.66;;;4.98;100.00
19447;BME280;9862;49.462;11.054;2023-03-12T07:03:15;97765.78;;;5.02;100.00
19447;BME280;9862;49.462;11.054;2023-03-12T07:05:43;97759.75;;;5.08;100.00
19447;BME280;9862;49.462;11.054;2023-03-12T07:08:10;97755.41;;;5.15;100.00
19447;BME280;9862;49.462;11.054;2023-03-12T07:10:37;97749.03;;;5.39;100.00
19447;BME280;9862;49.462;11.054;2023-03-12T07:13:03;97748.06;;;5.26;100.00
19447;BME280;9862;49.462;11.054;2023-03-12T07:15:30;97743.69;;;5.18;100.00
19447;BME280;9862;49.462;11.054;2023-03-12T07:17:59;97756.59;;;5.13;100.00
19447;BME280;9862;49.462;11.054;2023-03-12T07:20:26;97754.22;;;5.03;100.00
19447;BME280;9862;49.462;11.054;2023-03-12T07:22:52;97749.22;;;5.08;100.00
19447;BME280;9862;49.462;11.054;2023-03-12T07:25:19;97744.13;;;5.07;100.00
19447;BME280;9862;49.462;11.054;2023-03-12T07:27:45;97737.59;;;5.17;100.00
19447;BME280;9862;49.462;11.054;2023-03-12T07:30:12;97737.97;;;5.14;100.00
19447;BME280;9862;49.462;11.054;2023-03-12T07:32:39;97731.59;;;5.24;100.00
19447;BME280;9862;49.462;11.054;2023-03-12T07:35:08;97732.78;;;5.21;100.00
19447;BME280;9862;49.462;11.054;2023-03-12T07:37:35;97727.94;;;5.25;100.00
19447;BME280;9862;49.462;11.054;2023-03-12T07:40:02;97716.09;;;5.21;100.00
19447;BME280;9862;49.462;11.054;2023-03-12T07:42:31;97719.66;;;5.28;100.00
19447;BME280;9862;49.462;11.054;2023-03-12T07:44:58;97719.56;;;5.36;100.00
19447;BME280;9862;49.462;11.054;2023-03-12T07:47:25;97710.84;;;5.50;100.00
19447;BME280;9862;49.462;11.054;2023-03-12T07:49:51;97720.63;;;5.56;100.00
19447;BME280;9862;49.462;11.054;2023-03-12T07:52:19;97722.38;;;5.64;100.00
19447;BME280;9862;49.462;11.054;2023-03-12T07:54:47;97718.63;;;5.58;100.00
19447;BME280;9862;49.462;11.054;2023-03-12T07:57:16;97714.97;;;5.59;100.00
19447;BME280;9862;49.462;11.054;2023-03-12T07:59:43;97717.53;;;5.67;100.00
19447;BME280;9862;49.462;11.054;2023-03-12T08:02:10;97717.09;;;5.64;100.00
19447;BME280;9862;49.462;11.054;2023-03-12T08:04:37;97725.38;;;5.61;100.00
19447;BME280;9862;49.462;11.054;2023-03-12T08:07:03;97717.59;;;5.74;100.00
19447;BME280;9862;49.462;11.054;2023-03-12T08:09:31;97716.22;;;5.78;100.00
19447;BME280;9862;49.462;11.054;2023-03-12T08:11:58;97713.84;;;5.83;100.00
19447;BME280;9862;49.462;11.054;2023-03-12T08:14:25;97714.09;;;6.03;100.00
19447;BME280;9862;49.462;11.054;2023-03-12T08:16:55;97722.81;;;6.18;100.00
19447;BME280;9862;49.462;11.054;2023-03-12T08:19:22;97722.91;;;6.10;100.00
19447;BME280;9862;49.462;11.054;2023-03-12T08:21:48;97720.00;;;6.05;100.00
19447;BME280;9862;49.462;11.054;2023-03-12T08:24:16;97718.06;;;6.14;100.00
19447;BME280;9862;49.462;11.054;2023-03-12T08:26:43;97720.50;;;6.15;100.00
19447;BME280;9862;49.462;11.054;2023-03-12T08:29:10;97719.38;;;6.24;100.00
19447;BME280;9862;49.462;11.054;2023-03-12T08:31:37;97727.44;;;6.16;100.00
19447;BME280;9862;49.462;11.054;2023-03-12T08:34:04;97731.03;;;6.09;100.00
19447;BME280;9862;49.462;11.054;2023-03-12T08:36:31;97728.44;;;6.15;100.00
19447;BME280;9862;49.462;11.054;2023-03-12T08:38:57;97731.09;;;6.15;100.00
19447;BME280;9862;49.462;11.054;2023-03-12T08:41:24;97722.91;;;6.10;100.00
19447;BME280;9862;49.462;11.054;2023-03-12T08:43:52;97727.19;;;6.11;100.00
19447;BME280;9862;49.462;11.054;2023-03-12T08:46:18;97722.41;;;6.21;100.00
19447;BME280;9862;49.462;11.054;2023-03-12T08:48:45;97724.47;;;6.26;100.00
19447;BME280;9862;49.462;11.054;2023-03-12T08:51:11;97724.78;;;5.95;100.00
19447;BME280;9862;49.462;11.054;2023-03-12T08:53:38;97723.78;;;5.81;100.00
19447;BME280;9862;49.462;11.054;2023-03-12T08:56:05;97719.69;;;5.79;100.00
19447;BME280;9862;49.462;11.054;2023-03-12T08:58:31;97718.69;;;5.80;100.00
19447;BME280;9862;49.462;11.054;2023-03-12T09:00:59;97712.66;;;6.00;100.00
19447;BME280;9862;49.462;11.054;2023-03-12T09:03:26;97717.13;;;6.00;100.00
19447;BME280;9862;49.462;11.054;2023-03-12T09:06:02;97710.22;;;5.99;100.00
19447;BME280;9862;49.462;11.054;2023-03-12T09:08:30;97713.97;;;6.11;100.00
19447;BME280;9862;49.462;11.054;2023-03-12T09:10:58;97719.34;;;6.18;100.00
19447;BME280;9862;49.462;11.054;2023-03-12T09:13:25;97720.00;;;6.05;100.00
19447;BME280;9862;49.462;11.054;2023-03-12T09:15:51;97714.53;;;6.07;100.00
19447;BME280;9862;49.462;11.054;2023-03-12T09:18:19;97712.16;;;6.12;100.00
19447;BME280;9862;49.462;11.054;2023-03-12T09:20:46;97703.91;;;6.21;100.00
19447;BME280;9862;49.462;11.054;2023-03-12T09:23:12;97694.53;;;6.40;100.00
19447;BME280;9862;49.462;11.054;2023-03-12T09:25:39;97695.22;;;6.49;100.00
19447;BME280;9862;49.462;11.054;2023-03-12T09:28:05;97693.88;;;6.59;100.00
19447;BME280;9862;49.462;11.054;2023-03-12T09:30:32;97687.25;;;6.70;100.00
19447;BME280;9862;49.462;11.054;2023-03-12T09:32:58;97700.69;;;6.75;100.00
19447;BME280;9862;49.462;11.054;2023-03-12T09:35:26;97701.81;;;6.87;100.00
19447;BME280;9862;49.462;11.054;2023-03-12T09:37:53;97691.94;;;7.03;100.00
19447;BME280;9862;49.462;11.054;2023-03-12T09:40:21;97699.25;;;7.01;100.00
19447;BME280;9862;49.462;11.054;2023-03-12T09:42:51;97705.75;;;6.98;100.00
19447;BME280;9862;49.462;11.054;2023-03-12T09:45:20;97715.03;;;6.87;100.00
19447;BME280;9862;49.462;11.054;2023-03-12T09:47:49;97710.28;;;6.76;100.00
19447;BME280;9862;49.462;11.054;2023-03-12T09:50:21;97713.56;;;6.78;100.00
19447;BME280;9862;49.462;11.054;2023-03-12T09:52:55;97700.81;;;6.88;100.00
19447;BME280;9862;49.462;11.054;2023-03-12T09:55:23;97702.84;;;6.93;100.00
19447;BME280;9862;49.462;11.054;2023-03-12T09:57:50;97704.13;;;6.97;100.00
19447;BME280;9862;49.462;11.054;2023-03-12T10:00:19;97700.81;;;6.88;100.00
19447;BME280;9862;49.462;11.054;2023-03-12T10:03:04;97705.22;;;6.81;100.00
19447;BME280;9862;49.462;11.054;2023-03-12T10:05:35;97700.19;;;6.86;100.00
19447;BME280;9862;49.462;11.054;2023-03-12T10:08:11;97696.38;;;6.96;100.00
19447;BME280;9862;49.462;11.054;2023-03-12T10:10:50;97693.97;;;7.01;100.00
19447;BME280;9862;49.462;11.054;2023-03-12T10:13:32;97687.84;;;7.00;100.00
19447;BME280;9862;49.462;11.054;2023-03-12T10:16:13;97698.97;;;7.17;100.00
19447;BME280;9862;49.462;11.054;2023-03-12T10:18:58;97698.56;;;7.20;100.00
19447;BME280;9862;49.462;11.054;2023-03-12T10:21:32;97694.97;;;7.34;100.00
19447;BME280;9862;49.462;11.054;2023-03-12T10:24:16;97686.84;;;7.42;100.00
19447;BME280;9862;49.462;11.054;2023-03-12T10:26:48;97676.09;;;7.44;100.00
19447;BME280;9862;49.462;11.054;2023-03-12T10:29:17;97678.28;;;7.40;100.00
19447;BME280;9862;49.462;11.054;2023-03-12T10:31:52;97681.75;;;7.41;100.00
19447;BME280;9862;49.462;11.054;2023-03-12T10:34:25;97682.72;;;7.33;100.00
19447;BME280;9862;49.462;11.054;2023-03-12T10:36:58;97690.66;;;7.27;100.00
19447;BME280;9862;49.462;11.054;2023-03-12T10:39:28;97687.56;;;7.23;100.00
19447;BME280;9862;49.462;11.054;2023-03-12T10:41:55;97678.44;;;7.26;100.00
19447;BME280;9862;49.462;11.054;2023-03-12T10:44:25;97681.75;;;7.34;100.00
19447;BME280;9862;49.462;11.054;2023-03-12T10:47:09;97690.28;;;6.95;100.00
19447;BME280;9862;49.462;11.054;2023-03-12T10:49:41;97690.84;;;6.63;100.00
19447;BME280;9862;49.462;11.054;2023-03-12T10:52:14;97698.97;;;6.61;100.00
19447;BME280;9862;49.462;11.054;2023-03-12T10:54:44;97690.91;;;6.69;100.00
19447;BME280;9862;49.462;11.054;2023-03-12T10:57:12;97687.31;;;6.77;100.00
19447;BME280;9862;49.462;11.054;2023-03-12T10:59:42;97685.97;;;6.87;100.00
19447;BME280;9862;49.462;11.054;2023-03-12T11:02:28;97693.63;;;6.82;100.00
19447;BME280;9862;49.462;11.054;2023-03-12T11:04:56;97685.16;;;6.94;100.00
19447;BME280;9862;49.462;11.054;2023-03-12T11:07:24;97684.78;;;6.97;100.00
19447;BME280;9862;49.462;11.054;2023-03-12T11:10:19;97683.19;;;7.02;100.00
19447;BME280;9862;49.462;11.054;2023-03-12T11:12:57;97682.06;;;7.18;100.00
19447;BME280;9862;49.462;11.054;2023-03-12T11:15:26;97688.00;;;7.27;100.00
19447;BME280;9862;49.462;11.054;2023-03-12T11:18:17;97684.91;;;7.16;100.00
19447;BME280;9862;49.462;11.054;2023-03-12T11:20:44;97683.06;;;7.17;100.00
19447;BME280;9862;49.462;11.054;2023-03-12T11:23:13;97684.31;;;7.21;100.00
19447;BME280;9862;49.462;11.054;2023-03-12T11:25:41;97682.09;;;7.25;100.00
19447;BME280;9862;49.462;11.054;2023-03-12T11:28:15;97692.50;;;7.26;100.00
19447;BME280;9862;49.462;11.054;2023-03-12T11:30:43;97681.59;;;7.08;100.00
19447;BME280;9862;49.462;11.054;2023-03-12T11:33:10;97685.25;;;7.07;100.00
19447;BME280;9862;49.462;11.054;2023-03-12T11:35:43;97687.91;;;7.13;100.00
19447;BME280;9862;49.462;11.054;2023-03-12T11:38:16;97689.59;;;7.21;100.00
19447;BME280;9862;49.462;11.054;2023-03-12T11:41:09;97683.91;;;7.17;100.00
19447;BME280;9862;49.462;11.054;2023-03-12T11:43:53;97688.00;;;7.27;100.00
19447;BME280;9862;49.462;11.054;2023-03-12T11:46:29;97702.09;;;7.34;100.00
19447;BME280;9862;49.462;11.054;2023-03-12T11:49:10;97688.69;;;7.42;100.00
19447;BME280;9862;49.462;11.054;2023-03-12T11:51:45;97684.00;;;7.37;100.00
19447;BME280;9862;49.462;11.054;2023-03-12T11:54:28;97682.34;;;7.36;100.00
19447;BME280;9862;49.462;11.054;2023-03-12T11:57:01;97679.91;;;7.35;100.00
19447;BME280;9862;49.462;11.054;2023-03-12T11:59:49;97668.06;;;7.31;100.00
19447;BME280;9862;49.462;11.054;2023-03-12T12:02:40;97683.09;;;7.24;100.00
19447;BME280;9862;49.462;11.054;2023-03-12T12:05:21;97668.06;;;7.31;100.00
19447;BME280;9862;49.462;11.054;2023-03-12T12:08:02;97667.34;;;7.43;100.00
19447;BME280;9862;49.462;11.054;2023-03-12T12:10:40;97670.09;;;7.29;100.00
19447;BME280;9862;49.462;11.054;2023-03-12T12:13:17;97666.59;;;7.22;100.00
19447;BME280;9862;49.462;11.054;2023-03-12T12:15:54;97673.50;;;7.16;100.00
19447;BME280;9862;49.462;11.054;2023-03-12T12:18:40;97671.72;;;7.30;100.00
19447;BME280;9862;49.462;11.054;2023-03-12T12:21:24;97656.06;;;7.28;100.00
19447;BME280;9862;49.462;11.054;2023-03-12T12:24:00;97655.31;;;7.47;100.00
19447;BME280;9862;49.462;11.054;2023-03-12T12:26:34;97653.22;;;7.30;100.00
19447;BME280;9862;49.462;11.054;2023-03-12T12:29:24;97657.09;;;7.34;100.00
19447;BME280;9862;49.462;11.054;2023-03-12T12:31:55;97655.66;;;7.31;100.00
19447;BME280;9862;49.462;11.054;2023-03-12T12:34:34;97643.66;;;7.35;100.00
19447;BME280;9862;49.462;11.054;2023-03-12T12:37:18;97643.03;;;7.33;100.00
19447;BME280;9862;49.462;11.054;2023-03-12T12:39:49;97645.78;;;7.12;100.00
19447;BME280;9862;49.462;11.054;2023-03-12T12:42:23;97638.66;;;7.06;100.00
19447;BME280;9862;49.462;11.054;2023-03-12T12:44:54;97623.69;;;7.26;100.00
19447;BME280;9862;49.462;11.054;2023-03-12T12:47:31;97635.91;;;7.27;100.00
19447;BME280;9862;49.462;11.054;2023-03-12T12:50:00;97640.94;;;7.22;100.00
19447;BME280;9862;49.462;11.054;2023-03-12T12:52:28;97630.97;;;7.17;100.00
19447;BME280;9862;49.462;11.054;2023-03-12T12:54:59;97628.97;;;7.26;100.00
19447;BME280;9862;49.462;11.054;2023-03-12T12:57:35;97640.34;;;7.20;100.00
19447;BME280;9862;49.462;11.054;2023-03-12T13:00:17;97632.56;;;7.12;100.00
19447;BME280;9862;49.462;11.054;2023-03-12T13:02:46;97628.91;;;7.13;100.00
19447;BME280;9862;49.462;11.054;2023-03-12T13:05:22;97629.69;;;7.07;100.00
19447;BME280;9862;49.462;11.054;2023-03-12T13:07:50;97633.72;;;6.96;100.00
19447;BME280;9862;49.462;11.054;2023-03-12T13:10:37;97630.00;;;6.91;100.00
19447;BME280;9862;49.462;11.054;2023-03-12T13:13:09;97627.81;;;7.01;100.00
19447;BME280;9862;49.462;11.054;2023-03-12T13:15:39;97620.34;;;7.11;100.00